Time;durP1;ratioP1;P1;durP2;ratioP2;P2;SDS_P1;SDS_P2;PMS_P1;PMS_P2;Temp;Humidity;BMP_temperature;BMP_pressure;BME280_temperature;BME280_humidity;BME280_pressure;Samples;Min_cycle;Max_cycle;Signal;HPM_P1;HPM_P2
2021/04/07 00:01:47;;;;;;;;;;;;;;;;;;10372886;28;20033;-66
2021/04/07 00:06:44;;;;;;;7.82;1.10;;;;;;;;;;10375542;28;19916;-65
2021/04/07 00:11:42;;;;;;;2.73;1.00;;;;;;;;;;10378368;28;20104;-65
2021/04/07 00:16:39;;;;;;;3.57;1.00;;;;;;;;;;10374301;28;20040;-65
2021/04/07 00:21:37;;;;;;;1.93;1.07;;;;;;;;;;10374286;28;20033;-63
2021/04/07 00:26:35;;;;;;;13.30;2.10;;;;;;;;;;10377395;28;20039;-65
2021/04/07 00:31:33;;;;;;;10.83;2.00;;;;;;;;;;10382682;28;20033;-65
2021/04/07 00:36:30;;;;;;;2.63;1.10;;;;;;;;;;10367007;28;20282;-64
2021/04/07 00:41:28;;;;;;;7.07;1.37;;;;;;;;;;10373232;28;20127;-65
2021/04/07 00:46:25;;;;;;;18.13;1.60;;;;;;;;;;10358565;28;20041;-65
2021/04/07 00:51:22;;;;;;;7.27;1.60;;;;;;;;;;10359278;28;20025;-65
2021/04/07 00:56:20;;;;;;;8.17;1.10;;;;;;;;;;10365704;28;20032;-64
2021/04/07 01:01:18;;;;;;;10.55;1.52;;;;;;;;;;10361335;28;20085;-63
2021/04/07 01:06:15;;;;;;;3.00;0.97;;;;;;;;;;10370402;28;20043;-64
2021/04/07 01:11:12;;;;;;;5.63;1.20;;;;;;;;;;10376481;28;20051;-63
2021/04/07 01:16:10;;;;;;;3.17;1.33;;;;;;;;;;10374672;28;20025;-64
2021/04/07 01:21:07;;;;;;;5.03;1.40;;;;;;;;;;10367896;28;20033;-63
2021/04/07 01:26:05;;;;;;;8.67;1.80;;;;;;;;;;10368155;28;20033;-62
2021/04/07 01:31:02;;;;;;;4.60;0.77;;;;;;;;;;10377180;28;20041;-63
2021/04/07 01:35:59;;;;;;;2.63;1.17;;;;;;;;;;10373574;28;20033;-63
2021/04/07 01:40:58;;;;;;;3.87;0.70;;;;;;;;;;10372562;28;20041;-64
2021/04/07 01:45:57;;;;;;;4.78;1.33;;;;;;;;;;10390217;28;20389;-64
2021/04/07 01:50:54;;;;;;;;;;;;;;;;;;10375748;28;20032;-62
2021/04/07 01:55:51;;;;;;;7.63;1.40;;;;;;;;;;10373085;28;20266;-64
2021/04/07 02:00:49;;;;;;;8.50;0.93;;;;;;;;;;10375054;28;20063;-65
2021/04/07 02:05:46;;;;;;;1.37;1.10;;;;;;;;;;10373094;28;20032;-65
2021/04/07 02:10:44;;;;;;;3.73;0.90;;;;;;;;;;10375356;28;20198;-65
2021/04/07 02:15:41;;;;;;;2.20;1.17;;;;;;;;;;10373077;28;20036;-66
2021/04/07 02:20:39;;;;;;;3.73;0.87;;;;;;;;;;10379536;28;20043;-65
2021/04/07 02:25:36;;;;;;;1.97;0.40;;;;;;;;;;10383667;28;20047;-64
2021/04/07 02:30:33;;;;;;;3.40;0.93;;;;;;;;;;10378963;28;20029;-65
2021/04/07 02:35:31;;;;;;;2.60;1.03;;;;;;;;;;10381707;28;20028;-65
2021/04/07 02:40:28;;;;;;;1.33;0.73;;;;;;;;;;10379319;28;20041;-65
2021/04/07 02:45:25;;;;;;;5.87;0.80;;;;;;;;;;10381727;28;20037;-65
2021/04/07 02:50:23;;;;;;;3.10;0.73;;;;;;;;;;10368878;28;20432;-63
2021/04/07 02:55:20;;;;;;;6.07;1.03;;;;;;;;;;10372925;28;20383;-64
2021/04/07 03:00:18;;;;;;;9.97;1.40;;;;;;;;;;10373562;28;20354;-65
2021/04/07 03:05:15;;;;;;;3.80;1.20;;;;;;;;;;10382451;28;20024;-65
2021/04/07 03:10:13;;;;;;;4.17;1.13;;;;;;;;;;10377917;28;20256;-66
2021/04/07 03:15:10;;;;;;;3.30;1.10;;;;;;;;;;10381201;28;20032;-65
2021/04/07 03:20:08;;;;;;;12.43;1.27;;;;;;;;;;10374895;28;20515;-65
2021/04/07 03:25:06;;;;;;;9.83;1.47;;;;;;;;;;10373003;28;20029;-65
2021/04/07 03:30:03;;;;;;;3.40;0.80;;;;;;;;;;10349935;28;20628;-66
2021/04/07 03:35:01;;;;;;;5.13;0.80;;;;;;;;;;10375402;28;20698;-66
2021/04/07 03:39:58;;;;;;;3.90;0.83;;;;;;;;;;10385583;28;20501;-66
2021/04/07 03:44:56;;;;;;;6.07;1.97;;;;;;;;;;10372257;28;20185;-66
2021/04/07 03:49:53;;;;;;;3.20;1.33;;;;;;;;;;10373860;28;20029;-65
2021/04/07 03:54:56;;;;;;;7.60;1.40;;;;;;;;;;10375002;28;20029;-65
2021/04/07 03:59:53;;;;;;;1.50;1.20;;;;;;;;;;10357419;28;20032;-65
2021/04/07 04:04:51;;;;;;;5.63;0.90;;;;;;;;;;10351776;28;20025;-65
2021/04/07 04:09:49;;;;;;;0.90;0.52;;;;;;;;;;10356575;28;20393;-65
2021/04/07 04:14:46;;;;;;;3.73;1.17;;;;;;;;;;10362075;28;20116;-65
2021/04/07 04:19:44;;;;;;;7.83;1.27;;;;;;;;;;10360494;28;20043;-65
2021/04/07 04:24:42;;;;;;;2.10;1.07;;;;;;;;;;10364848;28;20033;-66
2021/04/07 04:29:39;;;;;;;2.85;1.13;;;;;;;;;;10372236;28;20037;-64
2021/04/07 04:34:37;;;;;;;2.60;0.63;;;;;;;;;;10365265;28;20029;-64
2021/04/07 04:39:35;;;;;;;2.13;1.10;;;;;;;;;;10370483;28;20036;-64
2021/04/07 04:44:32;;;;;;;4.30;0.85;;;;;;;;;;10372186;28;20059;-65
2021/04/07 04:49:30;;;;;;;5.30;1.77;;;;;;;;;;10378192;28;20442;-66
2021/04/07 04:54:27;;;;;;;3.90;1.07;;;;;;;;;;10383811;28;20075;-65
2021/04/07 04:59:24;;;;;;;4.80;1.97;;;;;;;;;;10358494;28;20053;-65
2021/04/07 05:04:22;;;;;;;3.80;1.80;;;;;;;;;;10375945;28;20033;-65
2021/04/07 05:09:20;;;;;;;3.97;1.90;;;;;;;;;;10376061;28;20400;-65
2021/04/07 05:14:17;;;;;;;3.03;1.67;;;;;;;;;;10367854;28;20036;-65
2021/04/07 05:19:15;;;;;;;8.07;2.57;;;;;;;;;;10372533;28;20031;-66
2021/04/07 05:24:12;;;;;;;6.93;3.27;;;;;;;;;;10367593;28;20033;-64
2021/04/07 05:29:10;;;;;;;6.50;2.83;;;;;;;;;;10372193;28;20044;-64
2021/04/07 05:34:07;;;;;;;7.97;3.00;;;;;;;;;;10380750;28;20029;-64
2021/04/07 05:39:04;;;;;;;5.27;2.50;;;;;;;;;;10382181;28;20040;-63
2021/04/07 05:44:02;;;;;;;7.00;1.47;;;;;;;;;;10373611;28;20037;-63
2021/04/07 05:48:59;;;;;;;3.83;1.93;;;;;;;;;;10367510;28;20024;-64
2021/04/07 05:53:57;;;;;;;3.47;1.90;;;;;;;;;;10343648;28;20386;-63
2021/04/07 05:58:54;;;;;;;5.67;2.00;;;;;;;;;;10369544;28;20481;-63
2021/04/07 06:03:52;;;;;;;1.50;1.00;;;;;;;;;;10377354;28;20488;-61
2021/04/07 06:08:49;;;;;;;1.90;1.07;;;;;;;;;;10349131;28;20057;-63
2021/04/07 06:13:47;;;;;;;1.30;0.93;;;;;;;;;;10354320;28;20020;-63
2021/04/07 06:18:45;;;;;;;1.85;1.33;;;;;;;;;;10359911;28;20035;-63
2021/04/07 06:23:42;;;;;;;1.63;0.67;;;;;;;;;;10356130;28;20036;-64
2021/04/07 06:28:39;;;;;;;2.23;1.13;;;;;;;;;;10395698;28;20673;-64
2021/04/07 06:33:37;;;;;;;0.53;0.53;;;;;;;;;;10374998;28;20499;-64
2021/04/07 06:38:36;;;;;;;3.30;0.90;;;;;;;;;;10377208;28;20040;-64
2021/04/07 06:43:34;;;;;;;1.73;0.80;;;;;;;;;;10373948;28;20048;-64
2021/04/07 06:48:31;;;;;;;0.87;0.83;;;;;;;;;;10374070;28;20524;-65
2021/04/07 06:53:30;;;;;;;1.13;1.00;;;;;;;;;;10361486;28;20058;-64
2021/04/07 06:58:28;;;;;;;5.53;1.13;;;;;;;;;;10371822;28;20052;-66
2021/04/07 07:03:25;;;;;;;4.47;0.90;;;;;;;;;;10363473;28;20028;-65
2021/04/07 07:08:23;;;;;;;4.43;1.23;;;;;;;;;;10346482;28;20033;-66
2021/04/07 07:13:21;;;;;;;5.50;1.35;;;;;;;;;;10350467;28;20129;-65
2021/04/07 07:18:19;;;;;;;0.95;0.80;;;;;;;;;;10366641;28;20040;-65
2021/04/07 07:23:21;;;;;;;1.13;0.98;;;;;;;;;;10338648;28;20517;-65
2021/04/07 07:28:18;;;;;;;4.13;0.75;;;;;;;;;;10358978;28;20055;-63
2021/04/07 07:33:20;;;;;;;2.17;0.90;;;;;;;;;;10361803;28;20036;-66
2021/04/07 07:38:22;;;;;;;2.38;0.70;;;;;;;;;;10365714;28;20090;-66
2021/04/07 07:43:19;;;;;;;5.20;1.15;;;;;;;;;;10366911;28;20119;-64
2021/04/07 07:48:19;;;;;;;2.33;0.97;;;;;;;;;;10365425;28;20131;-65
2021/04/07 07:53:21;;;;;;;1.48;0.80;;;;;;;;;;10363554;28;20529;-65
2021/04/07 07:58:23;;;;;;;2.63;0.82;;;;;;;;;;10362222;28;20131;-65
2021/04/07 08:03:20;;;;;;;1.38;0.73;;;;;;;;;;10371538;28;20039;-65
2021/04/07 08:08:18;;;;;;;2.43;0.90;;;;;;;;;;10350855;28;20043;-64
2021/04/07 08:13:15;;;;;;;3.67;1.30;;;;;;;;;;10365886;28;20650;-65
2021/04/07 08:18:13;;;;;;;1.80;1.47;;;;;;;;;;10375806;28;20037;-65
2021/04/07 08:23:10;;;;;;;7.37;2.30;;;;;;;;;;10366351;28;20036;-65
2021/04/07 08:28:08;;;;;;;4.17;2.70;;;;;;;;;;10373955;28;21638;-64
2021/04/07 08:33:06;;;;;;;2.43;1.90;;;;;;;;;;10376227;28;20032;-65
2021/04/07 08:38:04;;;;;;;6.40;2.80;;;;;;;;;;10356565;28;20593;-65
2021/04/07 08:43:03;;;;;;;7.53;2.03;;;;;;;;;;10378610;28;20073;-64
2021/04/07 08:48:06;;;;;;;2.42;1.98;;;;;;;;;;10370823;28;20040;-65
2021/04/07 08:53:11;;;;;;;1.95;1.30;;;;;;;;;;10366161;28;20618;-65
2021/04/07 08:58:09;;;;;;;3.85;1.75;;;;;;;;;;10366368;28;20417;-65
2021/04/07 09:03:14;;;;;;;1.45;0.45;;;;;;;;;;10365062;28;20394;-65
2021/04/07 09:08:19;;;;;;;3.55;1.60;;;;;;;;;;10384405;28;20132;-65
2021/04/07 09:13:23;;;;;;;2.60;1.83;;;;;;;;;;10357090;28;20044;-65
2021/04/07 09:18:32;;;;;;;5.07;1.48;;;;;;;;;;10359512;28;20528;-63
2021/04/07 09:23:33;;;;;;;2.30;0.98;;;;;;;;;;10362305;28;20029;-65
2021/04/07 09:28:37;;;;;;;3.83;0.82;;;;;;;;;;10347725;28;21201;-63
2021/04/07 09:33:39;;;;;;;0.93;0.70;;;;;;;;;;10368140;28;20039;-64
2021/04/07 09:38:47;;;;;;;2.50;1.13;;;;;;;;;;10363016;28;20075;-63
2021/04/07 09:43:44;;;;;;;3.13;1.17;;;;;;;;;;10380011;28;20040;-63
2021/04/07 09:48:42;;;;;;;1.30;0.73;;;;;;;;;;10364300;28;20032;-64
2021/04/07 09:53:39;;;;;;;1.80;0.80;;;;;;;;;;10363006;28;20382;-65
2021/04/07 09:58:43;;;;;;;4.83;1.03;;;;;;;;;;10347437;28;20582;-64
2021/04/07 10:03:54;;;;;;;0.45;0.45;;;;;;;;;;10352697;28;20071;-65
2021/04/07 10:09:03;;;;;;;2.05;0.65;;;;;;;;;;10366625;28;20087;-64
2021/04/07 10:14:01;;;;;;;5.30;1.10;;;;;;;;;;10362576;28;20028;-64
2021/04/07 10:18:59;;;;;;;4.20;1.27;;;;;;;;;;10379804;28;20530;-64
2021/04/07 10:23:58;;;;;;;3.35;0.65;;;;;;;;;;10373801;28;20036;-64
2021/04/07 10:28:56;;;;;;;0.85;0.60;;;;;;;;;;10372248;28;20082;-64
2021/04/07 10:33:54;;;;;;;;;;;;;;;;;;10386595;28;20020;-64
2021/04/07 10:38:51;;;;;;;7.38;1.05;;;;;;;;;;10360071;28;20328;-64
2021/04/07 10:43:48;;;;;;;6.20;1.87;;;;;;;;;;10370300;28;20034;-64
2021/04/07 10:48:54;;;;;;;16.13;2.23;;;;;;;;;;10348423;28;20029;-63
2021/04/07 10:53:56;;;;;;;6.95;1.77;;;;;;;;;;10369140;22;20044;-67
2021/04/07 10:58:55;;;;;;;13.23;2.65;;;;;;;;;;10360449;28;20436;-67
2021/04/07 11:03:52;;;;;;;13.95;2.20;;;;;;;;;;10333771;28;20111;-67
2021/04/07 11:08:50;;;;;;;8.97;1.53;;;;;;;;;;10374220;28;20143;-67
2021/04/07 11:13:49;;;;;;;12.45;1.63;;;;;;;;;;10363718;28;20024;-67
2021/04/07 11:18:51;;;;;;;12.55;2.40;;;;;;;;;;10324541;28;20132;-66
2021/04/07 11:23:49;;;;;;;11.63;2.22;;;;;;;;;;10329003;23;20925;-65
2021/04/07 11:28:46;;;;;;;11.83;2.27;;;;;;;;;;10259926;28;20029;-65
2021/04/07 11:38:48;;;;;;;12.87;2.40;;;;;;;;;;10287395;28;20545;-66
2021/04/07 11:48:58;;;;;;;12.23;2.40;;;;;;;;;;10274566;28;20033;-65
2021/04/07 11:53:55;;;;;;;8.60;1.40;;;;;;;;;;10280936;28;20028;-64
2021/04/07 11:58:53;;;;;;;8.07;1.37;;;;;;;;;;10293195;28;20029;-64
2021/04/07 12:03:50;;;;;;;12.47;2.17;;;;;;;;;;10272519;28;20711;-64
2021/04/07 12:08:48;;;;;;;10.60;1.87;;;;;;;;;;10268423;28;20038;-65
2021/04/07 12:13:46;;;;;;;15.43;1.88;;;;;;;;;;10292737;28;20479;-66
2021/04/07 12:18:43;;;;;;;10.67;2.47;;;;;;;;;;10322735;28;20086;-66
2021/04/07 12:23:41;;;;;;;10.73;2.07;;;;;;;;;;10315827;28;20021;-66
2021/04/07 12:28:38;;;;;;;9.70;1.77;;;;;;;;;;10323121;28;20029;-66
2021/04/07 12:33:36;;;;;;;7.43;1.57;;;;;;;;;;10326187;28;20067;-65
2021/04/07 12:38:34;;;;;;;10.17;1.37;;;;;;;;;;10310100;28;21147;-65
2021/04/07 12:43:31;;;;;;;9.80;1.87;;;;;;;;;;10306435;28;20128;-66
2021/04/07 12:48:28;;;;;;;2.37;1.27;;;;;;;;;;10320848;28;20061;-66
2021/04/07 12:53:26;;;;;;;9.27;1.60;;;;;;;;;;10300620;28;20037;-66
2021/04/07 12:58:23;;;;;;;4.30;1.27;;;;;;;;;;10317554;28;20104;-67
2021/04/07 13:03:20;;;;;;;2.43;0.93;;;;;;;;;;10333756;28;20660;-66
2021/04/07 13:08:18;;;;;;;3.17;0.83;;;;;;;;;;10331978;28;20044;-66
2021/04/07 13:13:15;;;;;;;9.73;1.73;;;;;;;;;;10331723;28;20029;-66
2021/04/07 13:18:13;;;;;;;8.23;1.67;;;;;;;;;;10331501;28;20029;-66
2021/04/07 13:23:11;;;;;;;3.40;1.02;;;;;;;;;;10319624;28;20429;-65
2021/04/07 13:28:11;;;;;;;13.87;3.63;;;;;;;;;;10323895;28;20418;-65
2021/04/07 13:33:12;;;;;;;10.60;2.53;;;;;;;;;;10339756;28;20033;-64
2021/04/07 13:38:18;;;;;;;4.18;1.42;;;;;;;;;;10329091;28;20611;-66
2021/04/07 13:43:19;;;;;;;5.03;1.17;;;;;;;;;;10334762;28;20025;-65
2021/04/07 13:48:22;;;;;;;4.25;0.80;;;;;;;;;;10318271;28;20037;-65
2021/04/07 13:53:19;;;;;;;2.58;0.68;;;;;;;;;;10329455;28;20458;-66
2021/04/07 13:58:18;;;;;;;1.43;0.43;;;;;;;;;;10312956;28;20136;-65
2021/04/07 14:03:16;;;;;;;3.92;0.88;;;;;;;;;;10321316;28;20044;-65
2021/04/07 14:08:18;;;;;;;2.28;0.43;;;;;;;;;;10304168;28;20525;-65
2021/04/07 14:13:15;;;;;;;3.03;0.65;;;;;;;;;;10340029;28;20037;-66
2021/04/07 14:18:13;;;;;;;6.10;1.20;;;;;;;;;;10318420;28;20090;-65
2021/04/07 14:23:11;;;;;;;5.83;1.07;;;;;;;;;;10325423;28;20040;-65
2021/04/07 14:28:08;;;;;;;2.40;0.63;;;;;;;;;;10285179;28;20136;-65
2021/04/07 14:33:15;;;;;;;3.00;0.67;;;;;;;;;;10334074;28;20438;-65
2021/04/07 14:38:14;;;;;;;1.23;1.05;;;;;;;;;;10332939;28;20115;-66
2021/04/07 14:43:11;;;;;;;;;;;;;;;;;;10320731;28;20056;-65
2021/04/07 14:48:09;;;;;;;2.92;0.60;;;;;;;;;;10314117;28;20301;-65
2021/04/07 14:53:06;;;;;;;1.03;0.50;;;;;;;;;;10320529;28;20483;-65
2021/04/07 14:58:03;;;;;;;1.73;0.57;;;;;;;;;;10340222;28;20052;-65
2021/04/07 15:03:01;;;;;;;3.40;0.63;;;;;;;;;;10327727;28;20395;-66
2021/04/07 15:07:58;;;;;;;2.43;0.83;;;;;;;;;;10326120;28;20660;-66
2021/04/07 15:12:56;;;;;;;1.77;0.67;;;;;;;;;;10326866;28;20033;-65
2021/04/07 15:17:53;;;;;;;3.30;0.77;;;;;;;;;;10282602;28;20037;-66
2021/04/07 15:22:52;;;;;;;3.33;0.63;;;;;;;;;;10308955;28;20465;-66
2021/04/07 15:32:53;;;;;;;5.25;1.48;;;;;;;;;;10302454;28;20078;-66
2021/04/07 15:37:54;;;;;;;7.87;0.70;;;;;;;;;;10333396;28;20119;-66
2021/04/07 15:42:53;;;;;;;4.65;0.60;;;;;;;;;;10308284;28;20037;-66
2021/04/07 15:47:52;;;;;;;6.72;1.52;;;;;;;;;;10310082;28;20166;-66
2021/04/07 15:52:50;;;;;;;4.25;0.82;;;;;;;;;;10334520;28;20040;-66
2021/04/07 15:57:47;;;;;;;3.50;0.75;;;;;;;;;;10303197;28;20116;-66
2021/04/07 16:02:45;;;;;;;5.10;0.80;;;;;;;;;;10290672;28;20115;-66
2021/04/07 16:07:42;;;;;;;6.90;1.30;;;;;;;;;;10325907;28;20547;-66
2021/04/07 16:12:39;;;;;;;6.93;0.87;;;;;;;;;;10311607;28;20037;-66
2021/04/07 16:17:37;;;;;;;8.70;1.10;;;;;;;;;;10343482;28;20037;-66
2021/04/07 16:22:35;;;;;;;6.03;1.30;;;;;;;;;;10281210;28;20116;-66
2021/04/07 16:27:32;;;;;;;7.45;1.23;;;;;;;;;;10284980;28;20036;-64
2021/04/07 16:32:30;;;;;;;11.80;1.83;;;;;;;;;;10310001;28;20094;-66
2021/04/07 16:37:27;;;;;;;13.30;3.30;;;;;;;;;;10300432;28;20033;-66
2021/04/07 16:42:24;;;;;;;9.73;1.63;;;;;;;;;;10283506;28;20037;-65
2021/04/07 16:47:22;;;;;;;10.37;2.60;;;;;;;;;;10329477;28;20041;-66
2021/04/07 16:52:20;;;;;;;6.23;1.43;;;;;;;;;;10312408;28;20029;-66
2021/04/07 16:57:17;;;;;;;8.70;1.97;;;;;;;;;;10337978;28;20041;-66
2021/04/07 17:02:14;;;;;;;6.80;2.40;;;;;;;;;;10324950;28;20222;-66
2021/04/07 17:07:12;;;;;;;6.70;1.63;;;;;;;;;;10327731;28;20122;-67
2021/04/07 17:12:09;;;;;;;8.47;1.83;;;;;;;;;;10319351;28;20559;-65
2021/04/07 17:17:07;;;;;;;6.50;1.70;;;;;;;;;;10302923;28;20116;-66
2021/04/07 17:22:04;;;;;;;5.97;1.33;;;;;;;;;;10292139;28;20042;-66
2021/04/07 17:27:02;;;;;;;10.33;1.57;;;;;;;;;;10278460;28;20044;-66
2021/04/07 17:31:59;;;;;;;9.27;1.43;;;;;;;;;;10280825;28;20795;-66
2021/04/07 17:36:57;;;;;;;10.13;1.27;;;;;;;;;;10271782;28;20041;-66
2021/04/07 17:41:54;;;;;;;6.87;1.37;;;;;;;;;;10287288;28;20033;-65
2021/04/07 17:46:51;;;;;;;11.27;1.13;;;;;;;;;;10286325;28;20426;-66
2021/04/07 17:51:49;;;;;;;10.67;2.00;;;;;;;;;;10278859;28;20088;-65
2021/04/07 17:56:46;;;;;;;8.50;1.73;;;;;;;;;;10286020;28;20506;-67
2021/04/07 18:01:44;;;;;;;3.90;1.47;;;;;;;;;;10290568;28;20422;-65
2021/04/07 18:06:41;;;;;;;9.53;1.50;;;;;;;;;;10273576;28;20536;-66
2021/04/07 18:11:39;;;;;;;6.83;1.20;;;;;;;;;;10281100;28;21178;-66
2021/04/07 18:16:36;;;;;;;2.97;1.92;;;;;;;;;;10272639;28;20565;-65
2021/04/07 18:21:34;;;;;;;5.80;1.03;;;;;;;;;;10285720;28;20659;-66
2021/04/07 18:26:31;;;;;;;17.67;1.30;;;;;;;;;;10290838;28;20029;-66
2021/04/07 18:31:29;;;;;;;6.33;1.20;;;;;;;;;;10294579;28;20041;-65
2021/04/07 18:36:26;;;;;;;6.33;1.33;;;;;;;;;;10291081;28;20131;-66
2021/04/07 18:41:23;;;;;;;10.67;1.37;;;;;;;;;;10289091;28;20399;-67
2021/04/07 18:46:21;;;;;;;6.50;2.13;;;;;;;;;;10293007;28;20059;-65
2021/04/07 18:51:18;;;;;;;8.07;1.53;;;;;;;;;;10288757;28;20033;-64
2021/04/07 18:56:16;;;;;;;12.17;1.50;;;;;;;;;;10281716;28;20171;-65
2021/04/07 19:01:13;;;;;;;11.40;2.10;;;;;;;;;;10281475;28;20510;-64
2021/04/07 19:06:10;;;;;;;7.53;1.33;;;;;;;;;;10285721;28;20037;-65
2021/04/07 19:11:08;;;;;;;4.37;1.13;;;;;;;;;;10266578;28;20025;-64
2021/04/07 19:16:05;;;;;;;5.97;1.50;;;;;;;;;;10279094;28;20037;-65
2021/04/07 19:21:03;;;;;;;3.57;1.07;;;;;;;;;;10255203;28;20381;-67
2021/04/07 19:26:00;;;;;;;6.70;1.30;;;;;;;;;;10268457;28;20025;-65
2021/04/07 19:30:58;;;;;;;9.97;0.97;;;;;;;;;;10276282;28;20036;-65
2021/04/07 19:35:55;;;;;;;3.23;1.27;;;;;;;;;;10282814;28;20034;-66
2021/04/07 19:40:53;;;;;;;2.73;1.53;;;;;;;;;;10282670;28;20037;-65
2021/04/07 19:45:50;;;;;;;10.27;2.20;;;;;;;;;;10290344;28;20034;-65
2021/04/07 19:50:47;;;;;;;5.10;1.37;;;;;;;;;;10280956;28;20103;-67
2021/04/07 19:55:46;;;;;;;3.20;0.90;;;;;;;;;;10273675;28;20040;-64
2021/04/07 20:00:43;;;;;;;;;;;;;;;;;;10274144;28;20029;-64
2021/04/07 20:05:42;;;;;;;12.38;1.58;;;;;;;;;;10268974;28;19924;-64
2021/04/07 20:10:39;;;;;;;4.93;1.13;;;;;;;;;;10282456;28;20040;-65
2021/04/07 20:15:37;;;;;;;6.90;1.30;;;;;;;;;;10284375;28;20037;-65
2021/04/07 20:20:35;;;;;;;17.97;1.93;;;;;;;;;;10286036;28;20284;-65
2021/04/07 20:25:33;;;;;;;10.10;1.17;;;;;;;;;;10302191;28;21567;-65
2021/04/07 20:30:31;;;;;;;7.03;1.25;;;;;;;;;;10297368;28;20079;-66
2021/04/07 20:35:28;;;;;;;12.67;1.70;;;;;;;;;;10285700;28;20587;-65
2021/04/07 20:40:25;;;;;;;4.13;1.40;;;;;;;;;;10279896;28;20092;-65
2021/04/07 20:45:23;;;;;;;12.87;1.67;;;;;;;;;;10275604;28;20507;-66
2021/04/07 20:50:21;;;;;;;6.67;1.60;;;;;;;;;;10297717;28;20121;-65
2021/04/07 20:55:18;;;;;;;13.15;1.73;;;;;;;;;;10295197;28;20041;-66
2021/04/07 21:00:16;;;;;;;10.03;1.77;;;;;;;;;;10290778;28;20038;-65
2021/04/07 21:05:14;;;;;;;14.40;1.73;;;;;;;;;;10282967;28;20704;-65
2021/04/07 21:10:12;;;;;;;9.77;1.63;;;;;;;;;;10306500;28;20033;-64
2021/04/07 21:15:10;;;;;;;6.97;1.53;;;;;;;;;;10288334;28;20037;-65
2021/04/07 21:20:09;;;;;;;9.95;1.65;;;;;;;;;;10266487;28;20269;-65
2021/04/07 21:25:07;;;;;;;15.40;1.98;;;;;;;;;;10283099;28;20030;-65
2021/04/07 21:30:05;;;;;;;12.93;1.47;;;;;;;;;;10293475;28;20038;-65
2021/04/07 21:35:02;;;;;;;18.67;2.73;;;;;;;;;;10310829;28;20033;-65
2021/04/07 21:40:00;;;;;;;9.40;1.97;;;;;;;;;;10294661;28;20029;-65
2021/04/07 21:44:57;;;;;;;10.33;2.13;;;;;;;;;;10294903;28;20052;-66
2021/04/07 21:49:54;;;;;;;12.40;2.57;;;;;;;;;;10284729;28;20036;-65
2021/04/07 21:54:52;;;;;;;5.43;1.53;;;;;;;;;;10287198;28;20041;-66
2021/04/07 21:59:49;;;;;;;10.47;2.00;;;;;;;;;;10286637;28;20030;-66
2021/04/07 22:04:47;;;;;;;10.70;2.00;;;;;;;;;;10277660;28;20117;-65
2021/04/07 22:09:44;;;;;;;11.77;2.10;;;;;;;;;;10257189;28;20038;-65
2021/04/07 22:14:42;;;;;;;11.17;1.97;;;;;;;;;;10291730;28;20103;-66
2021/04/07 22:19:39;;;;;;;13.43;2.53;;;;;;;;;;10295727;28;20080;-66
2021/04/07 22:24:36;;;;;;;9.13;2.27;;;;;;;;;;10295567;28;20034;-65
2021/04/07 22:29:34;;;;;;;6.43;1.17;;;;;;;;;;10301559;28;20493;-66
2021/04/07 22:34:31;;;;;;;6.57;1.93;;;;;;;;;;10293816;28;20034;-66
2021/04/07 22:39:29;;;;;;;7.97;1.97;;;;;;;;;;10313534;28;20057;-65
2021/04/07 22:44:26;;;;;;;6.80;1.57;;;;;;;;;;10284367;28;20672;-66
2021/04/07 22:49:24;;;;;;;13.20;1.80;;;;;;;;;;10294120;28;20106;-66
2021/04/07 22:54:21;;;;;;;4.03;1.40;;;;;;;;;;10298807;28;20406;-65
2021/04/07 22:59:19;;;;;;;13.00;1.20;;;;;;;;;;10286375;28;20037;-66
2021/04/07 23:04:16;;;;;;;6.20;1.07;;;;;;;;;;10284531;28;20119;-63
2021/04/07 23:09:14;;;;;;;10.03;2.03;;;;;;;;;;10292244;28;20041;-64
2021/04/07 23:14:11;;;;;;;5.13;1.07;;;;;;;;;;10310696;28;20072;-64
2021/04/07 23:19:09;;;;;;;5.57;1.30;;;;;;;;;;10280074;28;20116;-66
2021/04/07 23:24:06;;;;;;;10.13;2.13;;;;;;;;;;10286513;28;20037;-65
2021/04/07 23:29:04;;;;;;;4.63;1.73;;;;;;;;;;10280614;28;20120;-63
2021/04/07 23:34:01;;;;;;;9.17;1.73;;;;;;;;;;10285302;28;20213;-64
2021/04/07 23:38:58;;;;;;;12.17;1.93;;;;;;;;;;10268441;28;20022;-66
2021/04/07 23:43:56;;;;;;;9.73;2.07;;;;;;;;;;10289951;28;20010;-66
2021/04/07 23:48:53;;;;;;;5.03;0.97;;;;;;;;;;10290110;28;20113;-64
2021/04/07 23:53:51;;;;;;;5.47;0.87;;;;;;;;;;10273422;28;20022;-65
2021/04/07 23:58:48;;;;;;;6.87;1.50;;;;;;;;;;10284837;28;20029;-64
